Fallsburg, New York
Current Conditions -  °F | °C
As of 7:35 AM on Tuesday 27 Jan 2015 (Local Time) from KMSV Reporting Station
Overcast Overcast  
Wind Chill:   Ceiling: 8000
Heat Index: 16°   Visibility: 10mi
Dew Point:   Wind: 12mph
Humidity: 58%   Direction: 310°NW
Pressure: 29.69"   Gusts: NA
Location:  41.73°N, 74.6°W
Report Text: KMSV 271235Z 31010KT 10SM OVC080 M09/M16 A2969 RMK AO1 4/002
Loading
Personal Weather Stations






























Interactive Weather Map New forecast layout! Learn more

10-Day Weather Forecast

Advertisements
Track Severe Weather on mobile